createdAt,value
2022-11-16T00:02:37.582Z,6.42
2022-11-16T00:05:29.254Z,5.42
2022-11-16T00:08:20.966Z,3.20
2022-11-16T00:11:14.780Z,1.42
2022-11-16T00:14:07.361Z,0.30
2022-11-16T00:16:59.718Z,0.30
2022-11-16T00:19:50.911Z,0.15
2022-11-16T00:22:42.575Z,0.70
2022-11-16T00:25:35.738Z,2.83
2022-11-16T00:28:27.059Z,3.72
2022-11-16T00:31:18.909Z,3.90
2022-11-16T00:34:10.995Z,3.60
2022-11-16T00:37:02.611Z,3.58
2022-11-16T00:39:54.345Z,3.27
2022-11-16T00:42:46.331Z,3.25
2022-11-16T00:45:39.172Z,3.17
2022-11-16T00:48:30.717Z,2.60
2022-11-16T00:51:22.120Z,2.75
2022-11-16T00:54:13.535Z,2.92
2022-11-16T00:57:05.183Z,2.92
2022-11-16T00:59:56.820Z,2.80
2022-11-16T01:02:48.341Z,1.45
2022-11-16T01:05:39.794Z,2.30
2022-11-16T01:08:32.035Z,2.58
2022-11-16T01:11:43.596Z,2.17
2022-11-16T01:14:35.182Z,1.87
2022-11-16T01:17:26.372Z,1.90
2022-11-16T01:20:20.286Z,1.40
2022-11-16T01:23:12.676Z,2.17
2022-11-16T01:26:03.867Z,2.20
2022-11-16T01:28:56.416Z,2.52
2022-11-16T01:31:47.584Z,2.50
2022-11-16T01:34:39.340Z,2.47
2022-11-16T01:37:32.666Z,2.00
2022-11-16T01:40:24.112Z,1.80
2022-11-16T01:43:20.777Z,1.47
2022-11-16T01:46:12.401Z,1.40
2022-11-16T01:49:06.820Z,1.65
2022-11-16T01:52:01.211Z,1.80
2022-11-16T01:54:55.651Z,2.00
2022-11-16T01:57:50.665Z,2.00
2022-11-16T02:00:42.175Z,1.80
2022-11-16T02:03:35.794Z,1.75
2022-11-16T02:06:46.246Z,1.80
2022-11-16T02:09:58.551Z,2.08
2022-11-16T02:13:17.552Z,1.80
2022-11-16T02:16:15.770Z,1.80
2022-11-16T02:19:18.362Z,1.98
2022-11-16T02:22:14.055Z,1.90
2022-11-16T02:25:11.013Z,1.80
2022-11-16T02:28:20.495Z,2.27
2022-11-16T02:31:14.956Z,1.50
2022-11-16T02:34:09.531Z,1.42
2022-11-16T02:37:03.212Z,1.10
2022-11-16T02:39:58.180Z,1.25
2022-11-16T02:42:52.974Z,1.20
2022-11-16T02:48:29.530Z,1.07
2022-11-16T02:51:22.332Z,0.65
2022-11-16T02:54:18.053Z,0.90
2022-11-16T02:57:39.821Z,1.05
2022-11-16T03:00:37.460Z,1.40
2022-11-16T03:03:32.202Z,1.70
2022-11-16T03:06:26.128Z,1.82
2022-11-16T03:12:01.268Z,2.20
2022-11-16T03:14:56.902Z,1.70
2022-11-16T03:17:50.781Z,2.10
2022-11-16T03:20:44.402Z,1.40
2022-11-16T03:23:36.478Z,1.30
2022-11-16T03:26:31.061Z,1.20
2022-11-16T03:29:26.979Z,1.60
2022-11-16T03:32:22.120Z,1.82
2022-11-16T03:35:17.870Z,1.45
2022-11-16T03:38:12.796Z,1.30
2022-11-16T03:41:08.996Z,1.32
2022-11-16T03:44:01.131Z,1.60
2022-11-16T03:46:52.488Z,1.40
2022-11-16T03:49:48.129Z,1.20
2022-11-16T03:52:41.514Z,1.15
2022-11-16T03:55:32.694Z,1.50
2022-11-16T03:58:24.864Z,1.45
2022-11-16T04:01:16.791Z,1.30
2022-11-16T04:04:10.244Z,1.47
2022-11-16T04:07:19.172Z,1.30
2022-11-16T04:10:30.140Z,1.90
2022-11-16T04:13:41.992Z,1.82
2022-11-16T04:16:51.585Z,1.52
2022-11-16T04:20:00.420Z,1.90
2022-11-16T04:23:13.295Z,1.65
2022-11-16T04:26:05.611Z,1.05
2022-11-16T04:28:56.997Z,1.20
2022-11-16T04:32:06.784Z,1.30
2022-11-16T04:35:16.565Z,1.22
2022-11-16T04:38:08.521Z,1.47
2022-11-16T04:41:00.559Z,2.77
2022-11-16T04:43:52.182Z,2.08
2022-11-16T04:47:01.503Z,2.25
2022-11-16T04:49:52.886Z,1.98
2022-11-16T04:52:46.135Z,2.00
2022-11-16T04:55:37.653Z,2.05
2022-11-16T04:58:29.232Z,2.10
2022-11-16T05:01:23.317Z,1.90
2022-11-16T05:04:14.911Z,1.57
2022-11-16T05:07:10.263Z,1.77
2022-11-16T05:10:04.387Z,1.60
2022-11-16T05:12:56.477Z,1.65
2022-11-16T05:15:48.715Z,1.67
2022-11-16T05:18:41.282Z,2.00
2022-11-16T05:24:36.722Z,1.65
2022-11-16T05:27:32.151Z,1.85
2022-11-16T05:30:23.358Z,3.37
2022-11-16T05:33:18.726Z,4.20
2022-11-16T05:36:15.201Z,3.42
2022-11-16T05:39:08.159Z,3.72
2022-11-16T05:42:01.205Z,2.75
2022-11-16T05:44:52.763Z,2.62
2022-11-16T05:47:45.818Z,2.37
2022-11-16T05:50:42.352Z,2.25
2022-11-16T05:53:32.166Z,2.33
2022-11-16T05:56:25.153Z,2.55
2022-11-16T05:59:18.818Z,2.75
2022-11-16T06:02:10.948Z,2.85
2022-11-16T06:05:02.752Z,2.98
2022-11-16T06:07:55.612Z,3.45
2022-11-16T06:10:47.831Z,3.30
2022-11-16T06:16:20.478Z,2.33
2022-11-16T06:19:11.976Z,2.25
2022-11-16T06:22:03.527Z,2.20
2022-11-16T06:24:56.075Z,1.67
2022-11-16T06:27:47.757Z,1.10
2022-11-16T06:30:42.088Z,1.22
2022-11-16T06:33:34.101Z,2.05
2022-11-16T06:36:27.478Z,2.20
2022-11-16T06:39:20.146Z,2.58
2022-11-16T06:42:11.885Z,3.10
2022-11-16T06:45:05.495Z,2.98
2022-11-16T06:47:58.702Z,3.10
2022-11-16T06:50:53.100Z,3.47
2022-11-16T06:53:45.472Z,3.50
2022-11-16T06:56:38.966Z,3.02
2022-11-16T06:59:32.736Z,3.27
2022-11-16T07:02:25.793Z,3.42
2022-11-16T07:05:17.903Z,3.67
2022-11-16T07:08:09.940Z,3.10
2022-11-16T07:13:50.360Z,4.97
2022-11-16T07:19:32.103Z,4.22
2022-11-16T07:22:24.810Z,4.70
2022-11-16T07:25:17.748Z,4.35
2022-11-16T07:28:11.086Z,7.28
2022-11-16T07:31:05.670Z,6.03
2022-11-16T07:33:57.266Z,6.15
2022-11-16T07:36:58.892Z,6.00
2022-11-16T07:39:50.915Z,4.37
2022-11-16T07:42:43.899Z,3.52
2022-11-16T07:45:53.517Z,4.53
2022-11-16T07:48:46.521Z,5.60
2022-11-16T07:51:48.815Z,3.77
2022-11-16T07:54:41.574Z,3.90
2022-11-16T07:57:33.179Z,3.45
2022-11-16T08:00:26.271Z,3.52
2022-11-16T08:06:04.013Z,2.70
2022-11-16T08:08:58.604Z,2.83
2022-11-16T08:11:49.270Z,3.25
2022-11-16T08:14:41.647Z,3.40
2022-11-16T08:17:33.251Z,3.22
2022-11-16T08:20:25.353Z,3.12
2022-11-16T08:23:18.441Z,2.55
2022-11-16T08:26:13.344Z,2.40
2022-11-16T08:29:05.204Z,2.40
2022-11-16T08:31:58.199Z,2.00
2022-11-16T08:34:49.530Z,2.20
2022-11-16T08:37:40.939Z,2.60
2022-11-16T08:40:33.610Z,2.35
2022-11-16T08:43:24.661Z,2.50
2022-11-16T08:46:17.531Z,2.05
2022-11-16T08:49:10.382Z,1.90
2022-11-16T08:52:01.789Z,2.10
2022-11-16T08:54:53.671Z,2.83
2022-11-16T08:57:45.502Z,1.90
2022-11-16T09:00:36.830Z,2.58
2022-11-16T09:03:29.001Z,1.85
2022-11-16T09:06:20.991Z,1.40
2022-11-16T09:09:12.219Z,1.70
2022-11-16T09:12:03.495Z,1.72
2022-11-16T09:14:55.043Z,1.82
2022-11-16T09:17:46.522Z,3.00
2022-11-16T09:20:38.061Z,2.10
2022-11-16T09:23:31.489Z,1.60
2022-11-16T09:26:24.153Z,1.87
2022-11-16T09:29:17.327Z,2.10
2022-11-16T09:32:09.041Z,2.20
2022-11-16T09:35:00.496Z,2.08
2022-11-16T09:40:36.375Z,2.42
2022-11-16T09:43:38.449Z,2.05
2022-11-16T09:46:31.094Z,2.17
2022-11-16T09:49:26.210Z,2.17
2022-11-16T09:52:21.490Z,2.30
2022-11-16T09:55:24.064Z,2.47
2022-11-16T09:58:18.846Z,2.65
2022-11-16T10:04:03.057Z,2.80
2022-11-16T10:06:58.862Z,2.40
2022-11-16T10:09:50.854Z,3.10
2022-11-16T10:12:46.194Z,2.70
2022-11-16T10:15:48.574Z,2.83
2022-11-16T10:18:50.970Z,2.60
2022-11-16T10:21:49.673Z,3.08
2022-11-16T10:24:55.036Z,2.90
2022-11-16T10:27:55.434Z,2.72
2022-11-16T10:30:49.983Z,2.25
2022-11-16T10:33:43.562Z,2.20
2022-11-16T10:36:37.096Z,2.58
2022-11-16T10:39:29.488Z,2.80
2022-11-16T10:42:23.822Z,3.45
2022-11-16T10:45:20.698Z,4.30
2022-11-16T10:48:19.548Z,3.67
2022-11-16T10:51:11.996Z,2.75
2022-11-16T10:54:05.830Z,2.60
2022-11-16T10:57:02.157Z,2.67
2022-11-16T10:59:56.331Z,2.25
2022-11-16T11:02:51.402Z,3.00
2022-11-16T11:05:53.422Z,3.20
2022-11-16T11:08:44.799Z,3.10
2022-11-16T11:11:53.652Z,2.45
2022-11-16T11:14:47.126Z,1.82
2022-11-16T11:17:42.043Z,2.30
2022-11-16T11:20:34.290Z,1.22
2022-11-16T11:23:27.805Z,1.60
2022-11-16T11:26:37.097Z,1.80
2022-11-16T11:29:32.084Z,2.08
2022-11-16T11:32:26.148Z,2.08
2022-11-16T11:35:26.809Z,1.60
2022-11-16T11:38:20.286Z,1.90
2022-11-16T11:41:16.395Z,1.65
2022-11-16T11:44:13.164Z,1.75
2022-11-16T11:47:56.251Z,2.27
2022-11-16T11:50:14.577Z,2.55
2022-11-16T11:53:08.894Z,2.17
2022-11-16T11:56:01.791Z,1.90
2022-11-16T11:58:54.626Z,1.70
2022-11-16T12:02:09.298Z,2.22
2022-11-16T12:05:24.198Z,2.02
2022-11-16T12:08:26.297Z,1.98
2022-11-16T12:11:20.597Z,1.00
2022-11-16T12:14:28.158Z,1.45
2022-11-16T12:17:37.586Z,0.98
2022-11-16T12:20:38.146Z,0.93
2022-11-16T12:27:04.312Z,1.20
2022-11-16T12:29:59.804Z,1.10
2022-11-16T12:33:02.069Z,1.20
2022-11-16T12:35:59.342Z,1.12
2022-11-16T12:39:00.365Z,1.22
2022-11-16T12:41:59.541Z,1.00
2022-11-16T12:48:25.980Z,1.17
2022-11-16T12:51:28.881Z,1.20
2022-11-16T12:54:32.692Z,1.00
2022-11-16T12:58:07.991Z,0.90
2022-11-16T13:01:05.168Z,0.90
2022-11-16T13:03:59.740Z,0.70
2022-11-16T13:06:53.956Z,0.90
2022-11-16T13:09:48.600Z,0.60
2022-11-16T13:12:40.313Z,0.40
2022-11-16T13:15:42.638Z,0.40
2022-11-16T13:18:31.787Z,0.57
2022-11-16T13:21:35.165Z,0.55
2022-11-16T13:24:34.429Z,0.68
2022-11-16T13:27:32.390Z,1.10
2022-11-16T13:30:26.244Z,0.60
2022-11-16T13:33:27.335Z,0.60
2022-11-16T13:40:04.673Z,1.15
2022-11-16T13:43:18.155Z,0.70
2022-11-16T13:46:22.410Z,0.90
2022-11-16T13:49:03.965Z,0.70
2022-11-16T13:52:07.002Z,0.93
2022-11-16T13:57:35.192Z,0.80
2022-11-16T14:00:30.708Z,0.70
2022-11-16T14:03:31.441Z,0.90
2022-11-16T14:07:05.206Z,0.88
2022-11-16T14:09:56.639Z,0.80
2022-11-16T14:12:55.990Z,0.80
2022-11-16T14:15:56.876Z,1.00
2022-11-16T14:18:49.408Z,1.20
2022-11-16T14:21:43.750Z,1.10
2022-11-16T14:24:38.616Z,1.00
2022-11-16T14:27:33.053Z,0.57
2022-11-16T14:30:28.662Z,0.80
2022-11-16T14:33:27.732Z,0.90
2022-11-16T14:36:19.359Z,0.78
2022-11-16T14:39:33.238Z,0.85
2022-11-16T14:42:37.976Z,0.62
2022-11-16T14:45:25.741Z,0.70
2022-11-16T14:51:11.141Z,1.50
2022-11-16T14:54:05.733Z,1.20
2022-11-16T14:57:05.609Z,0.88
2022-11-16T15:00:15.608Z,1.10
2022-11-16T15:03:10.180Z,0.98
2022-11-16T15:06:03.356Z,0.90
2022-11-16T15:08:58.356Z,1.10
2022-11-16T15:12:08.726Z,1.27
2022-11-16T15:15:08.048Z,1.20
2022-11-16T15:18:10.629Z,1.07
2022-11-16T15:21:02.134Z,1.25
2022-11-16T15:24:23.608Z,1.10
2022-11-16T15:26:46.501Z,1.42
2022-11-16T15:29:38.591Z,1.30
2022-11-16T15:32:31.629Z,1.92
2022-11-16T15:35:25.879Z,1.70
2022-11-16T15:38:20.091Z,1.40
2022-11-16T15:41:12.409Z,1.30
2022-11-16T15:44:15.408Z,1.70
2022-11-16T15:46:59.683Z,1.42
2022-11-16T15:49:53.274Z,2.08
2022-11-16T15:52:46.324Z,1.45
2022-11-16T15:55:40.889Z,1.47
2022-11-16T15:58:35.843Z,1.65
2022-11-16T16:01:29.620Z,1.42
2022-11-16T16:04:21.866Z,1.80
2022-11-16T16:07:14.227Z,1.98
2022-11-16T16:10:21.805Z,1.55
2022-11-16T16:13:28.376Z,2.05
2022-11-16T16:16:27.432Z,4.30
2022-11-16T16:19:37.012Z,1.67
2022-11-16T16:22:31.101Z,1.10
2022-11-16T16:25:31.115Z,2.00
2022-11-16T16:28:22.231Z,1.60
2022-11-16T16:31:15.446Z,1.57
2022-11-16T16:34:13.797Z,1.30
2022-11-16T16:37:05.303Z,1.75
2022-11-16T16:39:58.549Z,2.00
2022-11-16T16:42:51.044Z,1.60
2022-11-16T16:45:44.340Z,1.80
2022-11-16T16:48:40.377Z,1.45
2022-11-16T16:51:31.626Z,1.47
2022-11-16T16:54:23.209Z,1.72
2022-11-16T16:57:20.357Z,2.95
2022-11-16T17:00:13.556Z,1.90
2022-11-16T17:03:04.968Z,2.95
2022-11-16T17:06:01.906Z,2.72
2022-11-16T17:08:54.178Z,2.45
2022-11-16T17:11:47.739Z,2.10
2022-11-16T17:14:39.278Z,2.58
2022-11-16T17:17:30.752Z,2.67
2022-11-16T17:20:22.448Z,2.22
2022-11-16T17:23:14.037Z,2.17
2022-11-16T17:26:08.541Z,2.33
2022-11-16T17:29:00.402Z,2.37
2022-11-16T17:31:58.755Z,2.15
2022-11-16T17:34:49.957Z,2.33
2022-11-16T17:37:41.401Z,2.22
2022-11-16T17:40:32.881Z,2.22
2022-11-16T17:43:24.554Z,1.87
2022-11-16T17:46:17.234Z,1.85
2022-11-16T17:49:08.605Z,2.50
2022-11-16T17:51:59.963Z,2.15
2022-11-16T17:54:52.764Z,2.12
2022-11-16T17:57:44.351Z,2.47
2022-11-16T18:00:35.831Z,2.20
2022-11-16T18:03:28.512Z,2.50
2022-11-16T18:06:21.918Z,2.00
2022-11-16T18:09:13.128Z,2.90
2022-11-16T18:12:04.746Z,4.17
2022-11-16T18:15:26.495Z,2.50
2022-11-16T18:17:49.203Z,2.40
2022-11-16T18:20:40.676Z,2.77
2022-11-16T18:23:32.672Z,3.02
2022-11-16T18:26:25.208Z,2.30
2022-11-16T18:29:18.473Z,2.02
2022-11-16T18:32:10.109Z,2.42
2022-11-16T18:35:01.474Z,2.60
2022-11-16T18:37:53.051Z,2.33
2022-11-16T18:40:44.449Z,3.15
2022-11-16T18:43:36.665Z,3.52
2022-11-16T18:46:29.704Z,2.95
2022-11-16T18:49:21.194Z,3.37
2022-11-16T18:52:12.556Z,3.72
2022-11-16T18:55:04.449Z,2.98
2022-11-16T18:57:56.007Z,3.35
2022-11-16T19:00:47.313Z,3.00
2022-11-16T19:03:38.872Z,2.75
2022-11-16T19:06:31.776Z,3.60
2022-11-16T19:09:23.707Z,3.52
2022-11-16T19:12:15.408Z,3.72
2022-11-16T19:15:08.126Z,3.50
2022-11-16T19:18:20.466Z,4.05
2022-11-16T19:20:52.313Z,3.95
2022-11-16T19:23:46.064Z,3.90
2022-11-16T19:26:37.670Z,5.03
2022-11-16T19:29:28.876Z,4.83
2022-11-16T19:32:20.181Z,4.47
2022-11-16T19:35:14.702Z,4.30
2022-11-16T19:38:06.474Z,3.42
2022-11-16T19:40:57.989Z,3.72
2022-11-16T19:43:49.519Z,5.05
2022-11-16T19:46:41.261Z,4.87
2022-11-16T19:49:33.410Z,4.40
2022-11-16T19:52:25.606Z,3.85
2022-11-16T19:55:19.069Z,4.42
2022-11-16T19:58:14.862Z,4.30
2022-11-16T20:01:09.493Z,4.30
2022-11-16T20:04:04.406Z,4.95
2022-11-16T20:06:57.130Z,4.67
2022-11-16T20:09:53.360Z,4.33
2022-11-16T20:12:43.502Z,4.90
2022-11-16T20:15:34.979Z,4.45
2022-11-16T20:18:28.166Z,4.12
2022-11-16T20:21:23.018Z,4.45
2022-11-16T20:24:15.921Z,3.90
2022-11-16T20:27:08.256Z,4.00
2022-11-16T20:30:02.654Z,4.60
2022-11-16T20:32:53.187Z,4.45
2022-11-16T20:35:44.723Z,4.00
2022-11-16T20:38:36.632Z,4.03
2022-11-16T20:41:29.636Z,4.12
2022-11-16T20:44:22.806Z,2.65
2022-11-16T20:47:14.565Z,3.90
2022-11-16T20:50:06.537Z,4.58
2022-11-16T20:52:58.185Z,5.70
2022-11-16T20:55:49.533Z,5.00
2022-11-16T20:58:41.366Z,4.95
2022-11-16T21:01:32.770Z,4.60
2022-11-16T21:04:24.094Z,4.85
2022-11-16T21:07:15.458Z,4.05
2022-11-16T21:10:21.653Z,4.60
2022-11-16T21:13:34.070Z,4.83
2022-11-16T21:16:26.218Z,4.35
2022-11-16T21:19:17.952Z,4.55
2022-11-16T21:22:09.212Z,4.53
2022-11-16T21:25:01.027Z,4.53
2022-11-16T21:27:52.503Z,4.17
2022-11-16T21:30:43.941Z,4.25
2022-11-16T21:33:35.945Z,4.80
2022-11-16T21:36:29.254Z,4.58
2022-11-16T21:39:20.700Z,4.53
2022-11-16T21:42:12.512Z,4.62
2022-11-16T21:45:03.931Z,4.58
2022-11-16T21:47:55.199Z,4.40
2022-11-16T21:50:46.637Z,5.05
2022-11-16T21:53:38.245Z,4.92
2022-11-16T21:56:30.005Z,4.62
2022-11-16T21:59:21.407Z,4.70
2022-11-16T22:02:14.955Z,4.67
2022-11-16T22:07:49.730Z,4.65
2022-11-16T22:10:41.133Z,4.35
2022-11-16T22:13:32.491Z,4.33
2022-11-16T22:16:24.199Z,4.33
2022-11-16T22:21:55.017Z,4.05
2022-11-16T22:24:47.970Z,4.50
2022-11-16T22:27:58.815Z,4.17
2022-11-16T22:30:33.742Z,3.92
2022-11-16T22:36:08.437Z,3.85
2022-11-16T22:39:00.055Z,3.95
2022-11-16T22:41:51.376Z,4.45
2022-11-16T22:44:42.780Z,4.28
2022-11-16T22:47:35.884Z,3.65
2022-11-16T22:50:27.059Z,3.83
2022-11-16T22:53:18.634Z,3.92
2022-11-16T22:56:11.882Z,3.85
2022-11-16T22:59:07.348Z,4.62
2022-11-16T23:01:59.085Z,3.90
2022-11-16T23:04:50.599Z,3.92
2022-11-16T23:07:44.031Z,4.50
2022-11-16T23:10:37.802Z,4.40
2022-11-16T23:13:46.909Z,4.33
2022-11-16T23:16:40.091Z,4.58
2022-11-16T23:22:33.779Z,4.08
2022-11-16T23:25:43.573Z,4.35
2022-11-16T23:31:17.690Z,4.58
2022-11-16T23:34:09.348Z,4.47
2022-11-16T23:37:05.385Z,4.60
2022-11-16T23:39:56.747Z,4.20
2022-11-16T23:43:06.174Z,4.40
2022-11-16T23:45:58.141Z,4.35
2022-11-16T23:51:29.452Z,4.78
2022-11-16T23:54:20.979Z,4.08
2022-11-16T23:57:14.715Z,4.20
